Terminal Aerodrome Forecast
Issued by NWS Jacksonville, FL

Home | Current Version | Previous Version | Text Only | Print | Product List | Glossary On
Versions: 1 2 3 4 5 6 7 8 9 10 11 12 13 14 15 16 17 18 19 20 21 22 23 24
000
FTUS42 KJAX 020520
TAFGNV
TAF
KGNV 020520Z 0206/0306 00000KT P6SM SCT150 BKN250
     FM020900 00000KT 3SM BR SCT100 SCT250
      TEMPO 0209/0212 1SM BR
     FM021400 24005KT P6SM SCT030 SCT250
     FM021800 23008KT P6SM VCTS BKN035CB
      TEMPO 0218/0222 3SM TSRA OVC030CB
     FM022200 20005KT P6SM VCSH SCT040 BKN120=

USA.gov is the U.S. government's official web portal to all federal, state and local government web resources and services.